Time;durP1;ratioP1;P1;durP2;ratioP2;P2;SDS_P1;SDS_P2;PMS_P1;PMS_P2;Temp;Humidity;BMP_temperature;BMP_pressure;BME280_temperature;BME280_humidity;BME280_pressure;Samples;Min_cycle;Max_cycle;Signal;HPM_P1;HPM_P2
2023/11/02 00:00:59;;;;;;;3.63;2.00;;;10.50;99.90;;;;;;5037013;28;20880;-61
2023/11/02 00:03:32;;;;;;;5.30;1.90;;;10.50;99.90;;;;;;5036967;28;20515;-64
2023/11/02 00:06:24;;;;;;;3.40;1.90;;;10.40;99.90;;;;;;5037367;28;20459;-61
2023/11/02 00:09:33;;;;;;;3.87;2.30;;;10.40;99.90;;;;;;5036672;28;20479;-59
2023/11/02 00:12:02;;;;;;;5.30;2.10;;;10.30;99.90;;;;;;5037634;28;20981;-62
2023/11/02 00:14:35;;;;;;;5.40;2.70;;;10.30;99.90;;;;;;5036888;28;20528;-60
2023/11/02 00:17:15;;;;;;;6.20;2.10;;;10.30;99.90;;;;;;5037132;28;20462;-58
2023/11/02 00:19:44;;;;;;;5.13;1.87;;;10.40;99.90;;;;;;5037007;28;20463;-61
2023/11/02 00:22:13;;;;;;;5.23;2.23;;;10.30;99.90;;;;;;5036589;28;20956;-63
2023/11/02 00:24:43;;;;;;;6.70;2.30;;;10.30;99.90;;;;;;5036529;28;20495;-62
2023/11/02 00:27:11;;;;;;;3.90;1.70;;;10.20;99.90;;;;;;5037251;28;20735;-61
2023/11/02 00:29:39;;;;;;;7.27;2.50;;;10.30;99.90;;;;;;5036381;28;20467;-63
2023/11/02 00:32:08;;;;;;;4.97;2.30;;;10.20;99.90;;;;;;5036663;28;20876;-58
2023/11/02 00:34:37;;;;;;;5.17;2.43;;;10.30;99.90;;;;;;5036716;28;20467;-62
2023/11/02 00:37:05;;;;;;;4.73;1.90;;;10.30;99.90;;;;;;5036914;28;20467;-63
2023/11/02 00:39:33;;;;;;;4.10;1.93;;;10.30;99.90;;;;;;5036829;28;20923;-63
2023/11/02 00:42:01;;;;;;;5.63;2.10;;;10.40;99.90;;;;;;5036761;28;20469;-63
2023/11/02 00:44:28;;;;;;;4.53;1.80;;;10.40;99.90;;;;;;5036263;28;20472;-63
2023/11/02 00:46:55;;;;;;;4.17;2.10;;;10.50;99.90;;;;;;5036768;28;20482;-62
2023/11/02 00:49:24;;;;;;;8.40;2.10;;;10.50;99.90;;;;;;5036619;28;20459;-64
2023/11/02 00:51:56;;;;;;;3.57;1.93;;;10.50;99.90;;;;;;5036461;28;20933;-59
2023/11/02 00:54:58;;;;;;;4.60;1.90;;;10.50;99.90;;;;;;5035992;28;20429;-64
2023/11/02 00:57:28;;;;;;;3.43;2.30;;;10.50;90.50;;;;;;5036490;28;20550;-62
2023/11/02 00:59:57;;;;;;;4.07;2.30;;;10.50;81.10;;;;;;5036591;28;20455;-62
2023/11/02 01:02:30;;;;;;;2.90;2.00;;;10.50;65.50;;;;;;5036249;28;20462;-61
2023/11/02 01:04:59;;;;;;;2.80;1.93;;;10.60;43.40;;;;;;5036485;28;21019;-65
2023/11/02 01:07:28;;;;;;;4.03;2.30;;;10.60;45.30;;;;;;5035858;28;20933;-60
2023/11/02 01:10:01;;;;;;;3.50;1.80;;;10.60;1.00;;;;;;5036677;28;20515;-63
2023/11/02 01:12:32;;;;;;;4.37;2.23;;;10.60;13.90;;;;;;5035843;28;20465;-62
2023/11/02 01:15:00;;;;;;;2.83;1.60;;;10.60;1.00;;;;;;5036171;28;20925;-60
2023/11/02 01:17:33;;;;;;;4.77;2.00;;;10.60;1.00;;;;;;5036417;28;20466;-63
2023/11/02 01:20:08;;;;;;;7.23;2.30;;;10.60;1.00;;;;;;5036413;28;20477;-64
2023/11/02 01:22:52;;;;;;;5.07;2.27;;;10.70;1.00;;;;;;5036042;28;20750;-66
2023/11/02 01:25:23;;;;;;;5.83;2.63;;;10.70;1.00;;;;;;5034084;28;20473;-62
2023/11/02 01:27:50;;;;;;;5.43;2.20;;;10.70;1.00;;;;;;5036646;28;20749;-61
2023/11/02 01:31:11;;;;;;;12.50;3.27;;;10.70;1.00;;;;;;5035266;28;20458;-62
2023/11/02 01:33:59;;;;;;;5.50;2.30;;;10.60;1.00;;;;;;4955599;28;20931;-62
2023/11/02 01:36:35;;;;;;;4.20;2.10;;;10.60;1.00;;;;;;5035410;28;20512;-62
2023/11/02 01:39:31;;;;;;;5.60;2.07;;;10.50;1.00;;;;;;5035860;28;20455;-62
2023/11/02 01:42:08;;;;;;;9.30;2.00;;;10.50;1.00;;;;;;5035917;28;20494;-61
2023/11/02 01:44:44;;;;;;;8.50;3.60;;;10.50;1.00;;;;;;5035391;28;20498;-62
2023/11/02 01:47:21;;;;;;;5.27;2.30;;;10.60;1.00;;;;;;5035707;28;20465;-62
2023/11/02 01:49:59;;;;;;;3.57;2.00;;;10.50;1.00;;;;;;5035855;28;20466;-62
2023/11/02 01:52:51;;;;;;;5.50;2.53;;;10.50;1.00;;;;;;5035493;28;20531;-63
2023/11/02 01:55:29;;;;;;;4.03;2.23;;;10.60;1.00;;;;;;5035971;28;20946;-63
2023/11/02 01:58:06;;;;;;;3.60;2.00;;;10.50;1.00;;;;;;5035852;28;20498;-61
2023/11/02 02:00:49;;;;;;;3.83;2.20;;;10.50;1.00;;;;;;5035188;28;20896;-63
2023/11/02 02:03:26;;;;;;;5.93;2.27;;;10.50;1.00;;;;;;5035924;28;20474;-63
2023/11/02 02:06:00;;;;;;;3.50;2.27;;;10.50;1.00;;;;;;5035537;28;20462;-62
2023/11/02 02:08:37;;;;;;;5.90;2.40;;;10.50;1.00;;;;;;5034886;28;20483;-62
2023/11/02 02:11:13;;;;;;;4.37;2.70;;;10.50;5.10;;;;;;5035237;28;20459;-61
2023/11/02 02:13:56;;;;;;;3.70;2.10;;;10.50;1.00;;;;;;5035691;28;20458;-62
2023/11/02 02:16:34;;;;;;;4.60;3.40;;;10.60;23.30;;;;;;5034823;28;20454;-62
2023/11/02 02:19:14;;;;;;;7.23;2.37;;;10.50;1.20;;;;;;5035508;28;20481;-62
2023/11/02 02:21:51;;;;;;;4.67;2.90;;;10.50;44.00;;;;;;5035514;28;20511;-61
2023/11/02 02:24:27;;;;;;;5.03;2.60;;;10.50;39.90;;;;;;5035258;28;20497;-62
2023/11/02 02:27:34;;;;;;;4.03;2.73;;;10.50;45.40;;;;;;5035270;28;20459;-62
2023/11/02 02:30:50;;;;;;;6.87;2.40;;;10.50;93.10;;;;;;5034922;28;20462;-63
2023/11/02 02:33:45;;;;;;;6.53;2.40;;;10.50;55.40;;;;;;5035169;28;20451;-62
2023/11/02 02:36:19;;;;;;;4.13;2.30;;;10.50;65.10;;;;;;5035346;28;20470;-62
2023/11/02 02:38:50;;;;;;;5.53;2.50;;;10.50;99.90;;;;;;5035063;28;20464;-61
2023/11/02 02:41:21;;;;;;;6.13;2.57;;;10.50;84.90;;;;;;5034825;28;20463;-62
2023/11/02 02:43:52;;;;;;;4.73;2.30;;;10.50;99.90;;;;;;5034818;28;20463;-61
2023/11/02 02:46:22;;;;;;;4.93;2.23;;;10.50;86.10;;;;;;5034931;28;20894;-61
2023/11/02 02:48:49;;;;;;;7.37;2.83;;;10.50;99.90;;;;;;5034352;28;20436;-62
2023/11/02 02:51:19;;;;;;;4.67;2.63;;;10.50;99.90;;;;;;5034516;28;20478;-62
2023/11/02 02:53:48;;;;;;;5.30;2.40;;;10.50;95.50;;;;;;5034847;28;20456;-62
2023/11/02 02:56:16;;;;;;;5.60;2.60;;;10.60;55.60;;;;;;5035037;28;20516;-62
2023/11/02 02:59:04;;;;;;;4.23;2.60;;;10.60;51.20;;;;;;5034491;28;20454;-61
2023/11/02 03:01:40;;;;;;;3.90;2.10;;;10.50;43.40;;;;;;5034760;28;20456;-61
2023/11/02 03:04:11;;;;;;;5.33;2.70;;;10.60;44.70;;;;;;5034824;28;20533;-63
2023/11/02 03:06:44;;;;;;;4.83;2.07;;;10.50;17.50;;;;;;5034520;28;20910;-62
2023/11/02 03:09:14;;;;;;;4.47;2.67;;;10.60;1.00;;;;;;5033786;28;20489;-62
2023/11/02 03:11:43;;;;;;;5.83;2.10;;;10.60;5.10;;;;;;5034475;28;20467;-61
2023/11/02 03:14:13;;;;;;;4.40;2.30;;;10.60;1.00;;;;;;5034699;28;20518;-62
2023/11/02 03:16:42;;;;;;;5.90;2.13;;;10.60;1.00;;;;;;5034196;28;20508;-61
2023/11/02 03:19:09;;;;;;;5.30;2.80;;;10.60;1.00;;;;;;5033531;28;20463;-62
2023/11/02 03:21:37;;;;;;;6.80;3.10;;;10.60;1.00;;;;;;5034316;28;20770;-62
2023/11/02 03:24:16;;;;;;;5.47;2.50;;;10.70;1.00;;;;;;5034177;28;20527;-62
2023/11/02 03:26:53;;;;;;;5.03;2.60;;;10.70;1.00;;;;;;5033874;28;20463;-61
2023/11/02 03:29:27;;;;;;;7.03;2.33;;;10.70;1.00;;;;;;5033644;28;20467;-61
2023/11/02 03:32:06;;;;;;;7.37;2.63;;;10.70;1.00;;;;;;5033975;28;20466;-61
2023/11/02 03:34:42;;;;;;;4.03;2.00;;;10.70;1.00;;;;;;5034220;28;20477;-61
2023/11/02 03:37:16;;;;;;;6.70;2.57;;;10.70;1.00;;;;;;5034263;28;20465;-62
2023/11/02 03:40:17;;;;;;;5.00;2.20;;;10.60;1.00;;;;;;5034347;28;20466;-61
2023/11/02 03:42:52;;;;;;;5.83;2.33;;;10.60;1.00;;;;;;5033880;28;20729;-62
2023/11/02 03:45:32;;;;;;;5.10;2.33;;;10.60;1.00;;;;;;5034071;28;20491;-62
2023/11/02 03:48:10;;;;;;;4.13;2.40;;;10.60;1.00;;;;;;5033995;28;20465;-61
2023/11/02 03:50:47;;;;;;;5.80;2.77;;;10.60;1.00;;;;;;5033620;28;20532;-61
2023/11/02 03:53:20;;;;;;;6.00;2.40;;;10.60;4.80;;;;;;5034115;28;20747;-62
2023/11/02 03:56:05;;;;;;;9.80;3.03;;;10.60;84.10;;;;;;5034285;28;20461;-60
2023/11/02 03:58:40;;;;;;;4.20;2.63;;;10.60;57.00;;;;;;5033741;28;20463;-62
2023/11/02 04:01:16;;;;;;;3.07;2.23;;;10.50;55.70;;;;;;5033740;28;20459;-62
2023/11/02 04:03:49;;;;;;;6.33;2.20;;;10.50;45.50;;;;;;5033757;28;20491;-64
2023/11/02 04:06:20;;;;;;;6.20;2.90;;;10.60;32.00;;;;;;5033833;28;20497;-61
2023/11/02 04:08:50;;;;;;;5.60;1.80;;;10.50;21.50;;;;;;5033212;28;20489;-61
2023/11/02 04:11:28;;;;;;;11.90;2.33;;;10.60;1.00;;;;;;5033598;28;20460;-63
2023/11/02 04:14:10;;;;;;;5.40;1.90;;;10.60;1.00;;;;;;5033688;28;20512;-61
2023/11/02 04:16:37;;;;;;;4.33;2.17;;;10.60;1.00;;;;;;5033240;28;20459;-62
2023/11/02 04:19:05;;;;;;;4.83;2.57;;;10.60;1.00;;;;;;5033366;28;20558;-62
2023/11/02 04:21:33;;;;;;;4.13;2.03;;;10.70;1.00;;;;;;5033916;28;20463;-59
2023/11/02 04:24:00;;;;;;;4.17;2.67;;;10.70;1.00;;;;;;5033613;28;20757;-61
2023/11/02 04:26:29;;;;;;;4.93;1.90;;;10.70;1.00;;;;;;5033263;28;20495;-62
2023/11/02 04:28:56;;;;;;;3.60;2.37;;;10.70;99.90;;;;;;5032861;28;20459;-63
2023/11/02 04:31:24;;;;;;;5.63;2.30;;;10.70;1.00;;;;;;5034867;28;20467;-63
2023/11/02 04:33:51;;;;;;;4.60;2.07;;;10.70;1.00;;;;;;5037141;28;20459;-64
2023/11/02 04:36:18;;;;;;;7.70;2.63;;;10.70;1.00;;;;;;5036839;28;20458;-64
2023/11/02 04:38:49;;;;;;;3.50;2.33;;;10.80;1.00;;;;;;5036383;28;20463;-63
2023/11/02 04:41:16;;;;;;;6.03;2.33;;;10.70;1.00;;;;;;5036762;28;20481;-62
2023/11/02 04:43:45;;;;;;;5.50;2.07;;;10.70;65.90;;;;;;5037340;28;20473;-62
2023/11/02 04:46:12;;;;;;;9.10;2.90;;;10.70;1.00;;;;;;5036766;28;20497;-63
2023/11/02 04:48:40;;;;;;;4.83;2.87;;;10.60;99.90;;;;;;5036945;28;20558;-60
2023/11/02 04:51:08;;;;;;;3.50;1.90;;;10.50;99.90;;;;;;5036737;28;20965;-62
2023/11/02 04:53:35;;;;;;;4.70;2.07;;;10.50;99.90;;;;;;5036653;28;20877;-63
2023/11/02 04:56:02;;;;;;;4.53;2.40;;;10.50;99.90;;;;;;5036478;28;20451;-59
2023/11/02 04:58:29;;;;;;;3.80;1.80;;;10.40;99.90;;;;;;5036501;28;20470;-55
2023/11/02 05:00:58;;;;;;;4.80;2.03;;;10.40;99.90;;;;;;5036240;28;20516;-54
2023/11/02 05:03:26;;;;;;;3.10;2.20;;;10.40;99.90;;;;;;5036484;28;20467;-57
2023/11/02 05:05:53;;;;;;;4.73;2.53;;;10.30;99.90;;;;;;5036431;28;20487;-60
2023/11/02 05:08:22;;;;;;;4.13;2.30;;;10.30;99.90;;;;;;5035529;28;20490;-60
2023/11/02 05:10:49;;;;;;;3.83;2.37;;;10.30;99.90;;;;;;5036666;28;20463;-60
2023/11/02 05:13:16;;;;;;;5.67;2.10;;;10.30;99.90;;;;;;5035797;28;20481;-60
2023/11/02 05:15:43;;;;;;;3.33;2.60;;;10.30;77.00;;;;;;5036202;28;20464;-66
2023/11/02 05:18:12;;;;;;;3.47;2.00;;;10.40;85.00;;;;;;5036017;28;20820;-64
2023/11/02 05:20:39;;;;;;;6.23;2.10;;;10.40;38.80;;;;;;5036622;28;20430;-60
2023/11/02 05:23:09;;;;;;;4.20;2.40;;;10.40;15.50;;;;;;5036388;28;20576;-64
2023/11/02 05:25:36;;;;;;;6.07;2.23;;;10.40;1.00;;;;;;5036578;28;20768;-60
2023/11/02 05:28:03;;;;;;;5.17;1.97;;;10.40;1.00;;;;;;5034444;28;20476;-71
2023/11/02 05:30:30;;;;;;;3.57;2.27;;;10.50;1.00;;;;;;5034724;28;20562;-70
2023/11/02 05:32:58;;;;;;;5.80;2.13;;;10.50;1.00;;;;;;5032053;28;20471;-66
2023/11/02 05:35:26;;;;;;;4.57;2.03;;;10.50;1.00;;;;;;5024336;28;20877;-67
2023/11/02 05:37:53;;;;;;;4.23;2.03;;;10.50;1.00;;;;;;5033962;28;20474;-71
2023/11/02 05:40:20;;;;;;;6.23;2.20;;;10.50;1.00;;;;;;5035735;28;20550;-66
2023/11/02 05:42:48;;;;;;;4.30;2.00;;;10.50;1.00;;;;;;5035612;28;20868;-67
2023/11/02 05:45:16;;;;;;;5.77;1.97;;;10.50;1.00;;;;;;5035888;28;20487;-71
2023/11/02 05:47:43;;;;;;;3.73;1.97;;;10.50;1.00;;;;;;5035786;28;20479;-67
2023/11/02 05:50:11;;;;;;;3.63;2.23;;;10.50;1.00;;;;;;5032402;28;20569;-64
2023/11/02 05:52:39;;;;;;;4.30;2.03;;;10.50;1.00;;;;;;5024993;28;20737;-62
2023/11/02 05:55:07;;;;;;;3.73;1.90;;;10.50;1.00;;;;;;5034881;28;20478;-68
2023/11/02 05:57:35;;;;;;;5.27;2.27;;;10.50;1.00;;;;;;5021364;28;20431;-65
2023/11/02 06:00:07;;;;;;;3.90;2.00;;;10.60;1.00;;;;;;5014597;28;20468;-65
2023/11/02 06:02:35;;;;;;;6.57;1.90;;;10.50;1.00;;;;;;5015345;28;20472;-64
2023/11/02 06:05:03;;;;;;;2.70;2.00;;;10.60;1.00;;;;;;5015161;28;20511;-67
2023/11/02 06:07:30;;;;;;;3.77;2.00;;;10.60;1.00;;;;;;5020262;28;20504;-62
2023/11/02 06:09:59;;;;;;;4.03;2.37;;;10.60;1.00;;;;;;5015680;28;20460;-64
2023/11/02 06:12:25;;;;;;;3.13;2.20;;;10.60;1.00;;;;;;5014633;28;20456;-64
2023/11/02 06:14:52;;;;;;;3.53;1.90;;;10.60;1.00;;;;;;5056130;27;20891;-65
2023/11/02 06:17:20;;;;;;;3.70;1.80;;;10.60;1.00;;;;;;5136726;27;20825;-65
2023/11/02 06:19:47;;;;;;;3.73;1.70;;;10.70;1.00;;;;;;5136070;27;20453;-62
2023/11/02 06:22:14;;;;;;;4.90;2.10;;;10.70;1.00;;;;;;5136203;27;20450;-64
2023/11/02 06:24:42;;;;;;;4.10;1.97;;;10.70;1.00;;;;;;5135769;27;20730;-64
2023/11/02 06:27:11;;;;;;;3.00;1.50;;;10.80;1.00;;;;;;5134984;27;20494;-62
2023/11/02 06:29:38;;;;;;;3.20;2.00;;;10.80;1.00;;;;;;5136961;27;20461;-63
2023/11/02 06:32:06;;;;;;;3.60;2.00;;;10.80;1.00;;;;;;5137257;27;20759;-64
2023/11/02 06:34:36;;;;;;;5.80;2.00;;;10.90;1.00;;;;;;5136706;27;20668;-62
2023/11/02 06:37:06;;;;;;;4.13;2.10;;;10.90;1.00;;;;;;5137065;27;20452;-63
2023/11/02 06:39:33;;;;;;;4.63;1.70;;;10.90;1.00;;;;;;5137272;27;20888;-66
2023/11/02 06:42:01;;;;;;;3.20;1.97;;;11.00;99.90;;;;;;5138565;27;20450;-63
2023/11/02 06:44:29;;;;;;;2.63;1.57;;;11.00;99.90;;;;;;5138785;27;20457;-65
2023/11/02 06:46:56;;;;;;;3.13;1.90;;;11.00;99.90;;;;;;5138498;27;20771;-64
2023/11/02 06:49:23;;;;;;;3.03;2.00;;;11.10;99.90;;;;;;5138415;27;20549;-65
2023/11/02 06:51:52;;;;;;;3.03;1.70;;;11.10;99.90;;;;;;5138493;27;20455;-64
2023/11/02 06:54:19;;;;;;;2.60;1.53;;;11.20;99.90;;;;;;5138048;27;20454;-65
2023/11/02 06:56:47;;;;;;;2.50;1.80;;;11.20;99.90;;;;;;5138738;27;20725;-62
2023/11/02 06:59:14;;;;;;;3.60;2.30;;;11.30;99.90;;;;;;5138658;27;20516;-63
2023/11/02 07:01:44;;;;;;;4.67;2.00;;;11.30;99.90;;;;;;5138336;27;20459;-64
2023/11/02 07:04:11;;;;;;;2.90;1.63;;;11.30;99.90;;;;;;5138861;27;20909;-63
2023/11/02 07:06:38;;;;;;;2.60;1.60;;;11.30;99.90;;;;;;5138465;27;20774;-63
2023/11/02 07:09:06;;;;;;;3.50;1.90;;;11.30;99.90;;;;;;5138002;27;20577;-65
2023/11/02 07:11:33;;;;;;;2.70;1.60;;;11.30;99.90;;;;;;5103219;27;20456;-64
2023/11/02 07:14:00;;;;;;;5.33;1.90;;;11.30;99.90;;;;;;5034322;28;20757;-64
2023/11/02 07:16:28;;;;;;;3.60;2.00;;;11.40;99.90;;;;;;5033505;28;20459;-65
2023/11/02 07:18:58;;;;;;;2.93;1.60;;;11.40;99.90;;;;;;5033771;28;20741;-66
2023/11/02 07:21:25;;;;;;;6.03;1.80;;;11.40;99.90;;;;;;5033895;28;20972;-63
2023/11/02 07:23:52;;;;;;;3.37;1.90;;;11.30;1.00;;;;;;5034392;28;20557;-63
2023/11/02 07:26:20;;;;;;;6.47;2.27;;;11.20;99.90;;;;;;5034606;28;20490;-60
2023/11/02 07:28:47;;;;;;;3.23;1.63;;;11.00;1.00;;;;;;5034184;28;20557;-59
2023/11/02 07:31:14;;;;;;;2.57;1.67;;;10.80;99.90;;;;;;5033614;28;20513;-61
2023/11/02 07:33:41;;;;;;;4.00;1.70;;;10.70;1.00;;;;;;5034078;28;20466;-64
2023/11/02 07:36:13;;;;;;;3.83;2.13;;;10.60;1.00;;;;;;5034367;28;20459;-61
2023/11/02 07:38:40;;;;;;;2.47;1.77;;;10.60;1.00;;;;;;5034236;28;20859;-61
2023/11/02 07:41:08;;;;;;;3.57;1.80;;;10.50;99.90;;;;;;5033850;28;20470;-58
2023/11/02 07:43:35;;;;;;;7.60;1.90;;;10.40;99.90;;;;;;5033916;28;20483;-59
2023/11/02 07:46:02;;;;;;;4.97;2.00;;;10.40;1.00;;;;;;5033939;28;20476;-60
2023/11/02 07:48:29;;;;;;;3.37;1.90;;;10.30;9.60;;;;;;5034229;28;20718;-59
2023/11/02 07:50:56;;;;;;;3.87;2.20;;;10.30;99.90;;;;;;5033666;28;20945;-62
2023/11/02 07:53:25;;;;;;;3.13;2.17;;;10.30;99.90;;;;;;5033810;28;20459;-60
2023/11/02 07:55:52;;;;;;;2.70;1.80;;;10.30;99.90;;;;;;5034079;28;20430;-64
2023/11/02 07:58:21;;;;;;;5.90;1.80;;;10.30;99.90;;;;;;5034013;28;20459;-59
2023/11/02 08:00:48;;;;;;;4.43;2.03;;;10.30;1.00;;;;;;5033759;28;20463;-60
2023/11/02 08:03:15;;;;;;;3.07;1.43;;;10.20;1.00;;;;;;5033696;28;20463;-62
2023/11/02 08:05:43;;;;;;;3.97;1.70;;;10.20;36.90;;;;;;5036377;28;20543;-60
2023/11/02 08:08:10;;;;;;;2.70;1.70;;;10.20;98.00;;;;;;5036926;28;20552;-63
2023/11/02 08:10:39;;;;;;;5.27;1.90;;;10.20;99.90;;;;;;5036966;28;20558;-61
2023/11/02 08:13:06;;;;;;;3.07;1.67;;;10.30;1.00;;;;;;5037065;28;20911;-61
2023/11/02 08:15:33;;;;;;;5.33;2.20;;;10.30;1.00;;;;;;5037270;28;20474;-59
2023/11/02 08:18:01;;;;;;;6.00;1.93;;;10.40;1.00;;;;;;5024177;28;20935;-63
2023/11/02 08:20:28;;;;;;;3.60;2.00;;;10.40;1.00;;;;;;5015634;28;20471;-62
2023/11/02 08:22:56;;;;;;;2.27;1.53;;;10.40;99.90;;;;;;5015770;28;20908;-62
2023/11/02 08:25:23;;;;;;;3.17;1.60;;;10.40;99.90;;;;;;5015395;28;20491;-62
2023/11/02 08:27:57;;;;;;;3.57;2.20;;;10.40;1.00;;;;;;5015847;28;20434;-61
2023/11/02 08:30:24;;;;;;;3.43;2.10;;;10.40;1.00;;;;;;5014716;28;20456;-60
2023/11/02 08:32:52;;;;;;;4.17;1.93;;;10.50;99.90;;;;;;5015442;28;20464;-61
2023/11/02 08:35:21;;;;;;;2.40;1.80;;;10.50;99.90;;;;;;5015672;28;20472;-59
2023/11/02 08:37:48;;;;;;;3.00;2.10;;;10.50;99.90;;;;;;5016126;28;20455;-62
2023/11/02 08:40:18;;;;;;;4.03;2.60;;;10.40;1.00;;;;;;5016219;28;20482;-60
2023/11/02 08:42:45;;;;;;;3.23;1.90;;;10.40;1.00;;;;;;5015288;28;20495;-61
2023/11/02 08:45:15;;;;;;;3.57;2.10;;;10.50;1.30;;;;;;5015344;28;20431;-60
2023/11/02 08:47:43;;;;;;;2.50;2.00;;;10.50;1.00;;;;;;5014985;28;20583;-59
2023/11/02 08:50:12;;;;;;;3.87;1.87;;;10.50;1.00;;;;;;5015365;28;20911;-60
2023/11/02 08:52:40;;;;;;;3.80;2.03;;;10.50;1.00;;;;;;5014920;28;20467;-61
2023/11/02 08:55:08;;;;;;;3.73;2.10;;;10.60;1.00;;;;;;5015339;28;20503;-61
2023/11/02 08:57:35;;;;;;;4.87;2.17;;;10.60;1.00;;;;;;5016039;28;20467;-63
2023/11/02 09:00:04;;;;;;;3.50;1.90;;;10.70;99.90;;;;;;5016909;28;20889;-61
2023/11/02 09:02:33;;;;;;;3.00;2.03;;;10.70;99.90;;;;;;5016307;28;20837;-61
2023/11/02 09:05:00;;;;;;;8.00;1.97;;;10.80;16.00;;;;;;5016316;28;20467;-62
2023/11/02 09:07:30;;;;;;;2.70;1.90;;;10.80;1.00;;;;;;5015209;28;20925;-60
2023/11/02 09:09:58;;;;;;;2.67;2.00;;;10.80;1.00;;;;;;5014710;28;20460;-62
2023/11/02 09:12:25;;;;;;;3.80;1.63;;;10.90;1.00;;;;;;5013612;28;20529;-62
2023/11/02 09:14:52;;;;;;;5.13;2.03;;;11.00;1.00;;;;;;5014360;28;20731;-59
2023/11/02 09:17:19;;;;;;;3.03;1.90;;;11.00;1.00;;;;;;5013347;28;20456;-60
2023/11/02 09:19:48;;;;;;;2.70;1.90;;;11.10;1.00;;;;;;5014699;28;20496;-62
2023/11/02 09:22:15;;;;;;;3.53;2.10;;;11.10;1.00;;;;;;5015145;28;21011;-60
2023/11/02 09:24:42;;;;;;;3.43;1.70;;;11.10;1.00;;;;;;5015632;28;20474;-59
2023/11/02 09:27:09;;;;;;;4.10;2.00;;;11.20;1.00;;;;;;5016245;28;20535;-61
2023/11/02 09:29:37;;;;;;;2.90;2.10;;;11.30;1.00;;;;;;5016243;28;20500;-62
2023/11/02 09:32:05;;;;;;;2.70;2.00;;;11.30;99.90;;;;;;5016203;28;20460;-59
2023/11/02 09:34:34;;;;;;;2.67;1.67;;;11.40;99.90;;;;;;5016223;28;20466;-60
2023/11/02 09:37:02;;;;;;;2.83;2.10;;;11.40;99.90;;;;;;5016055;28;20461;-60
2023/11/02 09:39:31;;;;;;;3.57;1.80;;;11.40;99.90;;;;;;5015910;28;20460;-60
2023/11/02 09:41:58;;;;;;;2.90;1.87;;;11.50;99.90;;;;;;5016423;28;20490;-60
2023/11/02 09:44:27;;;;;;;4.57;2.27;;;11.60;99.90;;;;;;5015258;28;20435;-62
2023/11/02 09:46:55;;;;;;;4.67;1.73;;;11.50;99.90;;;;;;5016121;28;20511;-60
2023/11/02 09:49:22;;;;;;;3.53;2.03;;;11.60;99.90;;;;;;5015470;28;20439;-60
2023/11/02 09:51:49;;;;;;;2.67;1.90;;;11.60;99.90;;;;;;5016265;28;20540;-60
2023/11/02 09:54:18;;;;;;;4.27;2.37;;;11.70;99.90;;;;;;5015955;28;20463;-60
2023/11/02 09:56:46;;;;;;;6.23;2.50;;;11.70;99.90;;;;;;5015480;28;20554;-60
2023/11/02 09:59:14;;;;;;;5.50;2.43;;;11.80;99.90;;;;;;5015530;28;20464;-59
2023/11/02 10:01:41;;;;;;;4.10;1.90;;;11.90;99.90;;;;;;5015740;28;20555;-60
2023/11/02 10:04:09;;;;;;;3.70;1.83;;;12.00;24.20;;;;;;5015783;28;20543;-60
2023/11/02 10:06:36;;;;;;;4.53;1.83;;;12.00;7.50;;;;;;5015709;28;20542;-62
2023/11/02 10:09:05;;;;;;;4.23;2.23;;;12.10;1.00;;;;;;5015625;28;20818;-62
2023/11/02 10:11:35;;;;;;;3.20;1.83;;;12.10;1.00;;;;;;5015572;28;20463;-60
2023/11/02 10:14:04;;;;;;;3.30;2.20;;;12.10;1.00;;;;;;5015846;28;20542;-61
2023/11/02 10:16:31;;;;;;;4.80;2.10;;;12.20;1.00;;;;;;5015109;28;20517;-61
2023/11/02 10:18:58;;;;;;;5.00;2.30;;;12.30;1.00;;;;;;5015222;28;20464;-62
2023/11/02 10:21:26;;;;;;;3.13;1.70;;;12.30;1.00;;;;;;5014191;28;20770;-61
2023/11/02 10:23:55;;;;;;;3.20;2.00;;;12.40;99.90;;;;;;5014311;28;20503;-62
2023/11/02 10:26:23;;;;;;;3.30;1.90;;;12.50;99.90;;;;;;5014723;28;20975;-62
2023/11/02 10:28:54;;;;;;;2.70;1.50;;;12.50;99.90;;;;;;5013474;28;20488;-62
2023/11/02 10:31:24;;;;;;;3.30;1.80;;;12.50;99.90;;;;;;5013529;28;20472;-62
2023/11/02 10:33:51;;;;;;;5.00;2.07;;;12.60;99.90;;;;;;5014711;28;20544;-61
2023/11/02 10:36:19;;;;;;;6.47;1.83;;;12.60;99.90;;;;;;5014883;28;20550;-59
2023/11/02 10:38:47;;;;;;;3.80;2.10;;;12.70;18.30;;;;;;5014593;28;20438;-63
2023/11/02 10:41:17;;;;;;;2.80;1.70;;;12.70;1.00;;;;;;5013686;28;20839;-62
2023/11/02 10:43:46;;;;;;;3.40;1.73;;;12.70;1.00;;;;;;5013354;28;20464;-62
2023/11/02 10:46:16;;;;;;;4.07;1.97;;;12.70;97.70;;;;;;5013534;28;20464;-61
2023/11/02 10:48:44;;;;;;;5.63;2.00;;;12.70;51.10;;;;;;5013221;28;20513;-61
2023/11/02 10:51:18;;;;;;;4.10;1.90;;;12.70;1.00;;;;;;5013488;28;20471;-62
2023/11/02 10:54:02;;;;;;;4.50;2.10;;;12.80;1.00;;;;;;5013435;28;20438;-64
2023/11/02 10:56:40;;;;;;;6.10;2.20;;;12.90;1.00;;;;;;5015187;28;20543;-64
2023/11/02 10:59:10;;;;;;;3.80;2.40;;;12.90;1.00;;;;;;5014513;28;20893;-63
2023/11/02 11:01:39;;;;;;;7.13;3.17;;;13.00;1.00;;;;;;5015054;28;20517;-60
2023/11/02 11:04:10;;;;;;;6.67;2.50;;;13.10;1.00;;;;;;5015049;28;20464;-63
2023/11/02 11:06:38;;;;;;;3.70;2.23;;;13.20;99.90;;;;;;5014185;28;20494;-63
2023/11/02 11:09:06;;;;;;;3.83;2.00;;;13.30;99.90;;;;;;5014600;28;20951;-63
2023/11/02 11:11:35;;;;;;;3.20;2.07;;;13.30;99.90;;;;;;5014364;28;20480;-60
2023/11/02 11:14:05;;;;;;;3.47;2.07;;;13.30;99.90;;;;;;5014746;28;20460;-63
2023/11/02 11:16:35;;;;;;;5.67;2.20;;;13.30;99.90;;;;;;5014360;28;20910;-61
2023/11/02 11:19:04;;;;;;;4.30;2.20;;;13.30;99.90;;;;;;5014276;28;20881;-64
2023/11/02 11:21:34;;;;;;;8.80;2.77;;;13.30;36.30;;;;;;5013659;28;20445;-60
2023/11/02 11:24:11;;;;;;;4.23;2.20;;;13.30;36.10;;;;;;5013025;28;20917;-62
2023/11/02 11:26:50;;;;;;;4.33;2.20;;;13.30;3.20;;;;;;5013685;28;20550;-62
2023/11/02 11:29:37;;;;;;;3.73;2.00;;;13.30;1.00;;;;;;5011968;28;20464;-63
2023/11/02 11:32:05;;;;;;;3.90;1.90;;;13.40;99.90;;;;;;5011911;28;20460;-61
2023/11/02 11:35:09;;;;;;;4.20;2.10;;;13.40;99.90;;;;;;5011580;28;20923;-63
2023/11/02 11:37:39;;;;;;;5.77;2.30;;;13.50;1.00;;;;;;5011320;28;20543;-63
2023/11/02 11:40:10;;;;;;;6.60;2.90;;;13.70;1.00;;;;;;5013632;28;20456;-61
2023/11/02 11:42:58;;;;;;;5.67;2.07;;;14.20;1.00;;;;;;5015935;28;20486;-62
2023/11/02 11:45:30;;;;;;;4.20;2.37;;;14.70;1.00;;;;;;5015134;28;20471;-59
2023/11/02 11:48:00;;;;;;;7.60;2.40;;;14.80;99.90;;;;;;5016395;28;20586;-60
2023/11/02 11:50:36;;;;;;;5.60;2.13;;;15.10;99.90;;;;;;5017043;28;20459;-59
2023/11/02 11:53:13;;;;;;;7.40;2.17;;;15.50;99.90;;;;;;5017140;28;20521;-62
2023/11/02 11:55:41;;;;;;;6.03;2.30;;;15.60;99.90;;;;;;5017058;28;20493;-60
2023/11/02 11:58:09;;;;;;;4.50;1.90;;;15.90;99.90;;;;;;5017117;28;20456;-60
2023/11/02 12:00:37;;;;;;;5.43;2.47;;;16.00;43.10;;;;;;5017220;28;20934;-60
2023/11/02 12:03:09;;;;;;;4.67;2.53;;;16.10;26.00;;;;;;5017326;28;20903;-64
2023/11/02 12:05:53;;;;;;;4.57;2.53;;;16.00;1.00;;;;;;5017414;28;20459;-60
2023/11/02 12:08:22;;;;;;;5.50;2.90;;;15.90;1.00;;;;;;5017113;28;20503;-59
2023/11/02 12:10:52;;;;;;;5.87;2.40;;;16.10;1.00;;;;;;5017081;28;20510;-59
2023/11/02 12:13:20;;;;;;;5.57;2.63;;;16.10;1.00;;;;;;5017244;28;20471;-59
2023/11/02 12:15:57;;;;;;;4.53;2.60;;;16.00;1.00;;;;;;5017227;28;20464;-60
2023/11/02 12:18:28;;;;;;;10.70;2.73;;;15.90;1.00;;;;;;5016710;28;20441;-60
2023/11/02 12:20:58;;;;;;;5.80;2.60;;;15.90;1.00;;;;;;5017016;28;20499;-62
2023/11/02 12:23:32;;;;;;;7.17;2.57;;;15.90;1.00;;;;;;5017225;28;20562;-60
2023/11/02 12:26:00;;;;;;;5.57;2.50;;;15.70;1.00;;;;;;5017372;28;20465;-60
2023/11/02 12:28:27;;;;;;;4.70;2.63;;;15.30;1.00;;;;;;5016246;28;20500;-62
2023/11/02 12:30:55;;;;;;;6.50;2.77;;;15.10;1.00;;;;;;5016229;28;20558;-61
2023/11/02 12:33:23;;;;;;;7.33;2.90;;;14.90;1.00;;;;;;5028239;27;20926;-62
2023/11/02 12:35:54;;;;;;;5.60;3.37;;;14.80;1.00;;;;;;5037205;28;20459;-62
2023/11/02 12:38:43;;;;;;;5.57;2.47;;;14.70;1.00;;;;;;5035220;28;20467;-62
2023/11/02 12:41:12;;;;;;;4.83;2.23;;;14.70;1.00;;;;;;5035418;28;20462;-63
2023/11/02 12:43:40;;;;;;;4.97;2.53;;;14.60;1.00;;;;;;5036796;28;20467;-63
2023/11/02 12:46:10;;;;;;;8.80;2.67;;;14.60;1.00;;;;;;5037056;28;20482;-63
2023/11/02 12:48:39;;;;;;;5.17;2.43;;;14.70;1.00;;;;;;5036541;28;20806;-63
2023/11/02 12:51:16;;;;;;;5.40;2.73;;;14.80;1.00;;;;;;5035342;28;20554;-63
2023/11/02 12:53:46;;;;;;;6.30;2.60;;;14.70;1.00;;;;;;5036956;28;20469;-63
2023/11/02 12:56:20;;;;;;;8.60;2.63;;;14.70;1.00;;;;;;5035681;28;20463;-63
2023/11/02 12:58:47;;;;;;;5.30;2.63;;;15.00;1.00;;;;;;5035838;28;20512;-63
2023/11/02 13:01:15;;;;;;;5.63;2.60;;;15.10;1.00;;;;;;5036449;28;20765;-63
2023/11/02 13:04:03;;;;;;;7.07;2.20;;;15.10;1.00;;;;;;5036169;28;20470;-62
2023/11/02 13:06:35;;;;;;;4.63;2.50;;;15.00;1.00;;;;;;5037163;28;20463;-62
2023/11/02 13:09:12;;;;;;;7.60;2.80;;;14.90;1.00;;;;;;5036856;28;20509;-62
2023/11/02 13:11:44;;;;;;;8.70;3.73;;;14.80;1.00;;;;;;5036699;28;20454;-64
2023/11/02 13:14:13;;;;;;;5.57;2.00;;;14.70;1.00;;;;;;5036718;28;20938;-61